createdAt,value
2023-02-03T00:00:40.152Z,4.14
2023-02-03T00:02:11.833Z,4.17
2023-02-03T00:03:43.469Z,4.18
2023-02-03T00:05:15.065Z,4.21
2023-02-03T00:06:46.625Z,4.26
2023-02-03T00:08:18.579Z,4.24
2023-02-03T00:09:50.429Z,4.26
2023-02-03T00:11:22.740Z,4.25
2023-02-03T00:12:55.086Z,4.20
2023-02-03T00:14:26.735Z,4.16
2023-02-03T00:15:58.342Z,4.14
2023-02-03T00:17:30.101Z,4.12
2023-02-03T00:19:01.874Z,4.11
2023-02-03T00:20:33.414Z,4.14
2023-02-03T00:22:05.002Z,4.12
2023-02-03T00:23:36.518Z,4.14
2023-02-03T00:25:08.101Z,4.12
2023-02-03T00:26:42.735Z,4.12
2023-02-03T00:28:14.325Z,4.12
2023-02-03T00:29:45.867Z,4.13
2023-02-03T00:31:21.656Z,4.14
2023-02-03T00:32:53.225Z,4.14
2023-02-03T00:34:28.097Z,4.16
2023-02-03T00:36:05.018Z,4.17
2023-02-03T00:37:36.725Z,4.13
2023-02-03T00:39:08.276Z,4.07
2023-02-03T00:40:39.721Z,4.04
2023-02-03T00:42:11.319Z,3.99
2023-02-03T00:43:43.018Z,3.93
2023-02-03T00:45:14.973Z,3.93
2023-02-03T00:46:46.938Z,3.93
2023-02-03T00:48:18.935Z,3.92
2023-02-03T00:49:50.632Z,3.92
2023-02-03T00:51:22.140Z,3.91
2023-02-03T00:52:53.660Z,3.90
2023-02-03T00:54:28.167Z,3.87
2023-02-03T00:56:02.662Z,3.85
2023-02-03T00:57:34.302Z,3.84
2023-02-03T00:59:05.944Z,3.83
2023-02-03T01:00:37.481Z,3.82
2023-02-03T01:02:18.147Z,3.80
2023-02-03T01:03:51.783Z,3.77
2023-02-03T01:05:25.766Z,3.76
2023-02-03T01:06:58.381Z,3.77
2023-02-03T01:08:32.317Z,3.76
2023-02-03T01:10:04.263Z,3.73
2023-02-03T01:11:35.867Z,3.69
2023-02-03T01:13:07.374Z,3.66
2023-02-03T01:14:38.975Z,3.65
2023-02-03T01:16:13.567Z,3.66
2023-02-03T01:17:45.135Z,3.67
2023-02-03T01:19:17.070Z,3.65
2023-02-03T01:20:48.555Z,3.63
2023-02-03T01:22:22.151Z,3.63
2023-02-03T01:23:55.117Z,3.67
2023-02-03T01:25:27.408Z,3.64
2023-02-03T01:26:59.008Z,3.63
2023-02-03T01:28:31.035Z,3.61
2023-02-03T01:30:02.623Z,3.61
2023-02-03T01:31:35.528Z,3.62
2023-02-03T01:33:07.145Z,3.60
2023-02-03T01:34:38.691Z,3.56
2023-02-03T01:36:10.618Z,3.51
2023-02-03T01:37:42.263Z,3.47
2023-02-03T01:39:14.029Z,3.44
2023-02-03T01:40:45.808Z,3.44
2023-02-03T01:42:17.300Z,3.44
2023-02-03T01:43:52.811Z,3.46
2023-02-03T01:45:24.406Z,3.47
2023-02-03T01:46:55.986Z,3.47
2023-02-03T01:48:27.640Z,3.47
2023-02-03T01:50:11.605Z,3.48
2023-02-03T01:51:43.259Z,3.51
2023-02-03T01:53:14.861Z,3.51
2023-02-03T01:54:46.709Z,3.57
2023-02-03T01:56:18.323Z,3.59
2023-02-03T01:57:54.467Z,3.57
2023-02-03T01:59:26.105Z,3.55
2023-02-03T02:00:58.158Z,3.56
2023-02-03T02:02:30.107Z,3.52
2023-02-03T02:04:02.049Z,3.49
2023-02-03T02:05:41.489Z,3.46
2023-02-03T02:07:13.086Z,3.45
2023-02-03T02:08:45.965Z,3.42
2023-02-03T02:10:17.540Z,3.41
2023-02-03T02:11:49.053Z,3.40
2023-02-03T02:13:20.625Z,3.39
2023-02-03T02:14:52.098Z,3.37
2023-02-03T02:16:23.602Z,3.35
2023-02-03T02:18:02.223Z,3.36
2023-02-03T02:19:52.148Z,3.34
2023-02-03T02:21:41.950Z,3.36
2023-02-03T02:23:25.768Z,3.39
2023-02-03T02:25:04.728Z,3.38
2023-02-03T02:26:45.498Z,3.43
2023-02-03T02:28:36.815Z,3.46
2023-02-03T02:30:08.393Z,3.43
2023-02-03T02:31:43.503Z,3.45
2023-02-03T02:33:20.070Z,3.44
2023-02-03T02:34:51.754Z,3.44
2023-02-03T02:36:38.946Z,3.44
2023-02-03T02:38:13.150Z,3.43
2023-02-03T02:40:00.149Z,3.43
2023-02-03T02:41:31.602Z,3.43
2023-02-03T02:43:12.739Z,3.40
2023-02-03T02:44:49.532Z,3.40
2023-02-03T02:46:25.067Z,3.40
2023-02-03T02:47:59.654Z,3.40
2023-02-03T02:49:33.307Z,3.38
2023-02-03T02:51:05.602Z,3.39
2023-02-03T02:52:37.726Z,3.42
2023-02-03T02:54:09.799Z,3.44
2023-02-03T02:55:41.365Z,3.45
2023-02-03T02:57:13.158Z,3.51
2023-02-03T02:58:45.174Z,3.53
2023-02-03T03:00:16.842Z,3.49
2023-02-03T03:01:48.564Z,3.47
2023-02-03T03:03:20.979Z,3.50
2023-02-03T03:04:52.751Z,3.50
2023-02-03T03:06:25.877Z,3.45
2023-02-03T03:07:59.381Z,3.38
2023-02-03T03:09:36.201Z,3.34
2023-02-03T03:11:07.828Z,3.27
2023-02-03T03:12:40.652Z,3.26
2023-02-03T03:14:12.247Z,3.25
2023-02-03T03:15:44.587Z,3.24
2023-02-03T03:17:17.748Z,3.23
2023-02-03T03:18:49.645Z,3.22
2023-02-03T03:20:21.942Z,3.25
2023-02-03T03:21:57.224Z,3.25
2023-02-03T03:23:30.134Z,3.18
2023-02-03T03:25:03.648Z,3.11
2023-02-03T03:26:36.379Z,3.03
2023-02-03T03:28:13.292Z,2.98
2023-02-03T03:29:47.727Z,2.91
2023-02-03T03:31:19.606Z,2.92
2023-02-03T03:32:51.117Z,2.91
2023-02-03T03:34:22.666Z,2.96
2023-02-03T03:35:59.895Z,2.99
2023-02-03T03:37:35.713Z,2.99
2023-02-03T03:39:22.418Z,2.99
2023-02-03T03:40:58.115Z,2.96
2023-02-03T03:42:39.382Z,2.92
2023-02-03T03:44:11.840Z,2.99
2023-02-03T03:45:46.031Z,2.98
2023-02-03T03:47:19.292Z,2.98
2023-02-03T03:48:57.412Z,3.01
2023-02-03T03:50:29.519Z,3.01
2023-02-03T03:52:01.829Z,3.04
2023-02-03T03:53:33.957Z,3.05
2023-02-03T03:55:07.626Z,3.02
2023-02-03T03:56:44.058Z,3.01
2023-02-03T03:58:23.171Z,3.00
2023-02-03T03:59:54.671Z,2.96
2023-02-03T04:01:26.367Z,2.93
2023-02-03T04:02:58.505Z,2.93
2023-02-03T04:04:30.306Z,2.89
2023-02-03T04:06:01.964Z,2.91
2023-02-03T04:07:43.374Z,2.96
2023-02-03T04:09:15.106Z,3.00
2023-02-03T04:10:46.757Z,2.98
2023-02-03T04:12:23.179Z,2.95
2023-02-03T04:13:54.747Z,2.93
2023-02-03T04:15:26.243Z,2.90
2023-02-03T04:16:58.237Z,2.86
2023-02-03T04:18:29.840Z,2.84
2023-02-03T04:20:01.454Z,2.80
2023-02-03T04:21:33.014Z,2.77
2023-02-03T04:23:04.548Z,2.73
2023-02-03T04:24:36.008Z,2.70
2023-02-03T04:26:07.643Z,2.70
2023-02-03T04:27:39.357Z,2.69
2023-02-03T04:29:10.958Z,2.71
2023-02-03T04:30:42.478Z,2.72
2023-02-03T04:32:14.048Z,2.75
2023-02-03T04:33:45.563Z,2.77
2023-02-03T04:35:17.139Z,2.76
2023-02-03T04:36:48.728Z,2.74
2023-02-03T04:38:20.297Z,2.75
2023-02-03T04:39:52.414Z,2.74
2023-02-03T04:41:24.413Z,2.74
2023-02-03T04:42:56.357Z,2.75
2023-02-03T04:44:28.418Z,2.74
2023-02-03T04:46:00.933Z,2.76
2023-02-03T04:47:32.526Z,2.77
2023-02-03T04:49:04.112Z,2.76
2023-02-03T04:50:35.714Z,2.75
2023-02-03T04:52:07.370Z,2.73
2023-02-03T04:53:39.184Z,2.71
2023-02-03T04:55:11.076Z,2.69
2023-02-03T04:56:43.031Z,2.64
2023-02-03T04:58:14.788Z,2.62
2023-02-03T04:59:46.350Z,2.60
2023-02-03T05:01:17.792Z,2.59
2023-02-03T05:02:49.836Z,2.59
2023-02-03T05:04:21.630Z,2.57
2023-02-03T05:05:53.144Z,2.55
2023-02-03T05:07:25.021Z,2.57
2023-02-03T05:08:56.844Z,2.59
2023-02-03T05:10:28.603Z,2.60
2023-02-03T05:12:00.641Z,2.59
2023-02-03T05:13:32.262Z,2.58
2023-02-03T05:15:03.864Z,2.57
2023-02-03T05:16:35.468Z,2.56
2023-02-03T05:18:07.194Z,2.57
2023-02-03T05:19:38.798Z,2.58
2023-02-03T05:21:10.386Z,2.60
2023-02-03T05:22:42.008Z,2.58
2023-02-03T05:24:13.644Z,2.54
2023-02-03T05:25:45.906Z,2.51
2023-02-03T05:27:18.781Z,2.46
2023-02-03T05:28:51.746Z,2.38
2023-02-03T05:30:23.867Z,2.35
2023-02-03T05:31:55.448Z,2.28
2023-02-03T05:33:27.173Z,2.27
2023-02-03T05:34:58.683Z,2.27
2023-02-03T05:36:30.341Z,2.25
2023-02-03T05:38:02.159Z,2.23
2023-02-03T05:39:33.804Z,2.22
2023-02-03T05:41:23.683Z,2.21
2023-02-03T05:42:55.267Z,2.20
2023-02-03T05:44:27.251Z,2.24
2023-02-03T05:46:02.177Z,2.24
2023-02-03T05:47:33.718Z,2.23
2023-02-03T05:49:05.290Z,2.22
2023-02-03T05:50:38.603Z,2.22
2023-02-03T05:52:10.600Z,2.22
2023-02-03T05:53:42.126Z,2.17
2023-02-03T05:55:13.687Z,2.17
2023-02-03T05:56:45.792Z,2.16
2023-02-03T05:58:17.445Z,2.15
2023-02-03T05:59:49.953Z,2.14
2023-02-03T06:01:21.608Z,2.15
2023-02-03T06:02:53.809Z,2.15
2023-02-03T06:04:25.380Z,2.19
2023-02-03T06:05:57.108Z,2.17
2023-02-03T06:07:28.662Z,2.18
2023-02-03T06:09:01.030Z,2.17
2023-02-03T06:10:32.570Z,2.14
2023-02-03T06:12:04.285Z,2.14
2023-02-03T06:13:35.894Z,2.12
2023-02-03T06:15:07.724Z,2.13
2023-02-03T06:16:39.700Z,2.15
2023-02-03T06:18:11.424Z,2.17
2023-02-03T06:19:42.939Z,2.19
2023-02-03T06:21:14.559Z,2.25
2023-02-03T06:22:46.242Z,2.24
2023-02-03T06:24:17.849Z,2.26
2023-02-03T06:25:49.615Z,2.26
2023-02-03T06:27:21.147Z,2.27
2023-02-03T06:28:52.690Z,2.27
2023-02-03T06:30:24.131Z,2.30
2023-02-03T06:31:55.734Z,2.31
2023-02-03T06:33:27.816Z,2.36
2023-02-03T06:34:59.574Z,2.41
2023-02-03T06:36:35.098Z,2.43
2023-02-03T06:38:12.772Z,2.43
2023-02-03T06:39:45.670Z,2.45
2023-02-03T06:41:17.404Z,2.50
2023-02-03T06:42:49.192Z,2.53
2023-02-03T06:44:20.674Z,2.59
2023-02-03T06:45:52.906Z,2.62
2023-02-03T06:47:24.606Z,2.66
2023-02-03T06:48:56.479Z,2.64
2023-02-03T06:50:28.268Z,2.64
2023-02-03T06:52:00.819Z,2.65
2023-02-03T06:53:32.551Z,2.69
2023-02-03T06:55:04.680Z,2.72
2023-02-03T06:56:36.301Z,2.75
2023-02-03T06:58:07.964Z,2.82
2023-02-03T06:59:39.501Z,2.87
2023-02-03T07:01:11.305Z,2.93
2023-02-03T07:02:42.962Z,3.00
2023-02-03T07:04:14.636Z,3.07
2023-02-03T07:05:46.215Z,3.15
2023-02-03T07:07:17.877Z,3.20
2023-02-03T07:08:49.405Z,3.24
2023-02-03T07:10:20.993Z,3.33
2023-02-03T07:11:52.501Z,3.35
2023-02-03T07:13:27.353Z,3.36
2023-02-03T07:14:58.873Z,3.34
2023-02-03T07:16:31.417Z,3.38
2023-02-03T07:18:03.000Z,3.41
2023-02-03T07:19:34.718Z,3.45
2023-02-03T07:21:07.109Z,3.52
2023-02-03T07:22:40.847Z,3.67
2023-02-03T07:24:12.443Z,3.81
2023-02-03T07:25:44.101Z,3.89
2023-02-03T07:27:15.735Z,3.97
2023-02-03T07:28:47.348Z,3.98
2023-02-03T07:30:19.088Z,3.98
2023-02-03T07:31:50.945Z,4.01
2023-02-03T07:33:22.559Z,4.00
2023-02-03T07:34:54.065Z,4.01
2023-02-03T07:36:25.681Z,4.06
2023-02-03T07:37:57.204Z,4.09
2023-02-03T07:39:28.810Z,4.10
2023-02-03T07:41:00.364Z,4.10
2023-02-03T07:42:32.007Z,4.07
2023-02-03T07:44:03.617Z,3.93
2023-02-03T07:45:35.331Z,3.82
2023-02-03T07:47:06.855Z,3.76
2023-02-03T07:48:38.408Z,3.76
2023-02-03T07:50:12.940Z,3.75
2023-02-03T07:51:44.632Z,3.77
2023-02-03T07:53:16.340Z,3.76
2023-02-03T07:54:47.906Z,3.82
2023-02-03T07:56:19.458Z,3.95
2023-02-03T07:57:51.048Z,4.20
2023-02-03T07:59:22.645Z,4.44
2023-02-03T08:00:54.701Z,4.60
2023-02-03T08:02:26.458Z,4.71
2023-02-03T08:03:58.149Z,4.86
2023-02-03T08:05:30.403Z,5.05
2023-02-03T08:07:02.314Z,5.21
2023-02-03T08:08:34.276Z,5.31
2023-02-03T08:10:07.140Z,5.31
2023-02-03T08:11:39.228Z,5.24
2023-02-03T08:13:10.713Z,5.19
2023-02-03T08:14:42.470Z,5.08
2023-02-03T08:16:14.419Z,5.00
2023-02-03T08:17:46.871Z,4.85
2023-02-03T08:19:19.014Z,4.77
2023-02-03T08:20:50.846Z,4.79
2023-02-03T08:22:22.479Z,4.84
2023-02-03T08:23:54.018Z,4.97
2023-02-03T08:25:25.669Z,5.05
2023-02-03T08:26:57.206Z,5.06
2023-02-03T08:28:28.730Z,5.05
2023-02-03T08:30:00.381Z,5.15
2023-02-03T08:31:32.253Z,5.29
2023-02-03T08:33:04.104Z,5.43
2023-02-03T08:34:35.740Z,5.66
2023-02-03T08:36:07.468Z,5.84
2023-02-03T08:37:39.151Z,5.96
2023-02-03T08:39:10.786Z,6.07
2023-02-03T08:40:42.557Z,6.17
2023-02-03T08:42:14.221Z,6.27
2023-02-03T08:43:46.137Z,6.41
2023-02-03T08:45:18.129Z,6.64
2023-02-03T08:46:50.606Z,6.87
2023-02-03T08:48:22.275Z,7.01
2023-02-03T08:49:53.828Z,7.13
2023-02-03T08:51:25.672Z,7.27
2023-02-03T08:52:57.258Z,7.37
2023-02-03T08:54:28.900Z,7.46
2023-02-03T08:56:00.677Z,7.48
2023-02-03T08:57:33.209Z,7.55
2023-02-03T08:59:04.789Z,7.65
2023-02-03T09:00:36.299Z,7.74
2023-02-03T09:02:08.250Z,7.78
2023-02-03T09:03:39.843Z,7.76
2023-02-03T09:05:11.490Z,7.76
2023-02-03T09:06:43.134Z,7.83
2023-02-03T09:08:14.942Z,7.83
2023-02-03T09:09:46.788Z,7.84
2023-02-03T09:11:19.011Z,7.96
2023-02-03T09:12:51.043Z,8.05
2023-02-03T09:14:23.058Z,8.10
2023-02-03T09:15:54.583Z,8.03
2023-02-03T09:17:26.405Z,7.89
2023-02-03T09:18:58.007Z,7.85
2023-02-03T09:20:29.951Z,7.91
2023-02-03T09:22:02.087Z,7.96
2023-02-03T09:23:35.739Z,8.01
2023-02-03T09:25:07.477Z,7.99
2023-02-03T09:26:42.217Z,7.93
2023-02-03T09:28:13.933Z,7.87
2023-02-03T09:29:45.750Z,7.83
2023-02-03T09:31:30.050Z,7.85
2023-02-03T09:33:08.125Z,7.83
2023-02-03T09:34:41.746Z,7.86
2023-02-03T09:36:14.478Z,7.82
2023-02-03T09:37:46.041Z,7.72
2023-02-03T09:39:17.656Z,7.68
2023-02-03T09:41:14.900Z,7.71
2023-02-03T09:42:52.745Z,7.83
2023-02-03T09:44:30.226Z,7.91
2023-02-03T09:46:25.448Z,7.98
2023-02-03T09:48:00.367Z,8.09
2023-02-03T09:49:41.606Z,8.07
2023-02-03T09:51:51.263Z,8.18
2023-02-03T09:53:29.908Z,8.28
2023-02-03T09:55:09.245Z,8.31
2023-02-03T09:56:59.485Z,8.32
2023-02-03T09:58:33.444Z,8.28
2023-02-03T10:00:14.087Z,8.35
2023-02-03T10:02:03.236Z,8.34
2023-02-03T10:03:37.560Z,8.32
2023-02-03T10:05:12.583Z,8.29
2023-02-03T10:06:45.220Z,8.51
2023-02-03T10:08:22.628Z,8.62
2023-02-03T10:09:58.174Z,8.69
2023-02-03T10:11:35.447Z,8.71
2023-02-03T10:13:26.016Z,8.63
2023-02-03T10:15:03.978Z,8.61
2023-02-03T10:16:53.622Z,8.55
2023-02-03T10:20:47.926Z,8.34
2023-02-03T10:22:20.623Z,8.14
2023-02-03T10:23:52.307Z,8.07
2023-02-03T10:25:26.246Z,8.02
2023-02-03T10:26:57.906Z,7.91
2023-02-03T10:28:55.647Z,7.81
2023-02-03T10:30:34.704Z,7.69
2023-02-03T10:32:10.382Z,7.62
2023-02-03T10:33:43.727Z,7.54
2023-02-03T10:35:15.991Z,7.50
2023-02-03T10:36:54.017Z,7.48
2023-02-03T10:38:31.448Z,7.52
2023-02-03T10:40:03.359Z,7.54
2023-02-03T10:41:35.193Z,7.56
2023-02-03T10:43:24.997Z,7.78
2023-02-03T10:44:57.280Z,7.96
2023-02-03T10:46:35.458Z,8.04
2023-02-03T10:48:10.244Z,7.95
2023-02-03T10:49:43.549Z,7.61
2023-02-03T10:51:25.189Z,7.33
2023-02-03T10:53:19.150Z,7.11
2023-02-03T10:54:50.842Z,6.81
2023-02-03T10:56:26.128Z,6.65
2023-02-03T10:57:57.771Z,6.61
2023-02-03T10:59:30.367Z,6.56
2023-02-03T11:01:05.849Z,6.52
2023-02-03T11:02:37.576Z,6.51
2023-02-03T11:04:22.502Z,6.52
2023-02-03T11:06:13.278Z,6.49
2023-02-03T11:07:44.973Z,6.54
2023-02-03T11:09:22.379Z,6.75
2023-02-03T11:10:56.308Z,7.05
2023-02-03T11:12:27.953Z,7.40
2023-02-03T11:14:05.452Z,7.77
2023-02-03T11:15:37.103Z,8.13
2023-02-03T11:17:09.368Z,8.54
2023-02-03T11:18:54.659Z,8.85
2023-02-03T11:20:29.025Z,8.98
2023-02-03T11:22:01.309Z,9.05
2023-02-03T11:23:32.854Z,9.07
2023-02-03T11:25:05.116Z,9.02
2023-02-03T11:26:42.608Z,8.96
2023-02-03T11:28:14.474Z,8.82
2023-02-03T11:29:46.839Z,8.65
2023-02-03T11:31:19.883Z,8.46
2023-02-03T11:32:52.040Z,8.38
2023-02-03T11:34:37.015Z,8.31
2023-02-03T11:36:09.497Z,8.24
2023-02-03T11:37:42.168Z,8.25
2023-02-03T11:39:17.851Z,8.31
2023-02-03T11:40:49.605Z,8.42
2023-02-03T11:42:24.866Z,8.44
2023-02-03T11:43:57.995Z,8.50
2023-02-03T11:45:41.558Z,8.42
2023-02-03T11:47:13.125Z,8.27
2023-02-03T11:48:44.777Z,8.16
2023-02-03T11:50:16.323Z,8.10
2023-02-03T11:51:51.825Z,8.07
2023-02-03T11:53:28.100Z,8.02
2023-02-03T11:55:06.568Z,8.07
2023-02-03T11:57:01.780Z,8.14
2023-02-03T11:58:33.886Z,8.17
2023-02-03T12:00:26.683Z,8.15
2023-02-03T12:01:58.427Z,8.13
2023-02-03T12:03:50.630Z,8.11
2023-02-03T12:05:32.280Z,8.06
2023-02-03T12:07:15.770Z,8.14
2023-02-03T12:08:56.786Z,8.40
2023-02-03T12:10:28.708Z,8.66
2023-02-03T12:12:30.158Z,8.88
2023-02-03T12:14:07.637Z,9.03
2023-02-03T12:15:51.810Z,9.09
2023-02-03T12:17:38.958Z,9.22
2023-02-03T12:19:28.843Z,9.32
2023-02-03T12:21:14.138Z,9.34
2023-02-03T12:23:15.721Z,9.39
2023-02-03T12:25:25.760Z,9.38
2023-02-03T12:27:00.244Z,9.25
2023-02-03T12:28:33.981Z,9.14
2023-02-03T12:30:11.745Z,8.95
2023-02-03T12:31:45.149Z,8.75
2023-02-03T12:33:16.745Z,8.60
2023-02-03T12:34:50.402Z,8.47
2023-02-03T12:36:24.310Z,8.38
2023-02-03T12:38:00.242Z,8.44
2023-02-03T12:39:35.927Z,8.49
2023-02-03T12:41:17.545Z,8.54
2023-02-03T12:42:56.171Z,8.56
2023-02-03T12:44:30.237Z,8.54
2023-02-03T12:59:21.099Z,7.97
2023-02-03T13:06:06.348Z,7.94
2023-02-03T13:08:01.579Z,7.83
2023-02-03T13:09:33.183Z,7.71
2023-02-03T13:11:24.785Z,7.53
2023-02-03T13:12:56.901Z,7.28
2023-02-03T13:14:28.456Z,7.16
2023-02-03T13:16:00.248Z,7.09
2023-02-03T13:17:34.537Z,7.07
2023-02-03T13:19:07.367Z,7.09
2023-02-03T13:20:38.989Z,7.16
2023-02-03T13:22:13.851Z,7.32
2023-02-03T13:23:45.647Z,7.61
2023-02-03T13:25:20.113Z,7.96
2023-02-03T13:27:10.430Z,8.35
2023-02-03T13:29:00.123Z,8.71
2023-02-03T13:30:31.900Z,8.95
2023-02-03T13:32:03.580Z,9.03
2023-02-03T13:33:53.670Z,9.13
2023-02-03T13:35:43.944Z,9.22
2023-02-03T13:37:34.420Z,9.25
2023-02-03T13:39:05.900Z,9.03
2023-02-03T13:40:40.561Z,8.92
2023-02-03T13:42:15.559Z,8.84
2023-02-03T13:43:48.380Z,8.75
2023-02-03T13:45:25.554Z,8.64
2023-02-03T13:46:57.862Z,8.61
2023-02-03T13:48:30.538Z,8.59
2023-02-03T13:50:02.937Z,8.51
2023-02-03T13:51:38.221Z,8.48
2023-02-03T13:53:23.314Z,8.46
2023-02-03T13:54:55.076Z,8.55
2023-02-03T13:56:28.661Z,8.67
2023-02-03T13:58:00.557Z,8.73
2023-02-03T13:59:37.787Z,8.71
2023-02-03T14:01:28.371Z,8.73
2023-02-03T14:03:00.353Z,8.68
2023-02-03T14:04:36.815Z,8.54
2023-02-03T14:06:11.810Z,8.37
2023-02-03T14:07:43.371Z,8.17
2023-02-03T14:09:36.110Z,8.02
2023-02-03T14:11:26.821Z,7.88
2023-02-03T14:13:00.141Z,7.74
2023-02-03T14:14:35.011Z,7.70
2023-02-03T14:16:23.542Z,7.68
2023-02-03T14:17:56.140Z,7.64
2023-02-03T14:19:31.664Z,7.71
2023-02-03T14:21:10.600Z,7.75
2023-02-03T14:22:42.505Z,7.73
2023-02-03T14:24:14.177Z,7.70
2023-02-03T14:25:47.210Z,7.67
2023-02-03T14:27:27.945Z,7.65
2023-02-03T14:28:59.926Z,7.63
2023-02-03T14:30:31.992Z,7.58
2023-02-03T14:32:06.922Z,7.58
2023-02-03T14:33:45.772Z,7.56
2023-02-03T14:35:24.862Z,7.59
2023-02-03T14:36:56.870Z,7.56
2023-02-03T14:38:31.605Z,7.48
2023-02-03T14:40:21.608Z,7.37
2023-02-03T14:41:56.439Z,7.29
2023-02-03T14:43:47.051Z,7.19
2023-02-03T14:45:30.989Z,7.10
2023-02-03T14:47:12.736Z,6.97
2023-02-03T14:48:53.660Z,6.85
2023-02-03T14:50:33.694Z,6.75
2023-02-03T14:52:14.959Z,6.74
2023-02-03T14:53:52.465Z,6.79
2023-02-03T14:55:42.946Z,6.84
2023-02-03T14:57:19.047Z,6.86
2023-02-03T14:59:01.846Z,6.88
2023-02-03T15:00:34.359Z,6.90
2023-02-03T15:02:07.074Z,6.97
2023-02-03T15:03:42.069Z,7.04
2023-02-03T15:05:13.888Z,7.12
2023-02-03T15:06:47.075Z,7.12
2023-02-03T15:08:53.855Z,7.14
2023-02-03T15:10:27.991Z,7.13
2023-02-03T15:11:59.783Z,7.04
2023-02-03T15:13:31.809Z,6.96
2023-02-03T15:15:13.770Z,6.89
2023-02-03T15:16:45.475Z,6.82
2023-02-03T15:18:26.901Z,6.76
2023-02-03T15:19:58.581Z,6.72
2023-02-03T15:21:30.142Z,6.69
2023-02-03T15:23:21.949Z,6.68
2023-02-03T15:25:04.426Z,6.62
2023-02-03T15:26:45.391Z,6.56
2023-02-03T15:28:20.435Z,6.50
2023-02-03T15:29:52.427Z,6.45
2023-02-03T15:31:26.214Z,6.39
2023-02-03T15:33:01.390Z,6.32
2023-02-03T15:34:33.096Z,6.25
2023-02-03T15:36:06.590Z,6.13
2023-02-03T15:37:45.926Z,6.05
2023-02-03T15:39:25.232Z,5.97
2023-02-03T15:41:00.669Z,5.91
2023-02-03T15:42:35.584Z,5.84
2023-02-03T15:44:12.387Z,5.78
2023-02-03T15:45:56.567Z,5.68
2023-02-03T15:47:30.337Z,5.59
2023-02-03T15:49:07.491Z,5.52
2023-02-03T15:50:50.286Z,5.45
2023-02-03T15:52:22.835Z,5.38
2023-02-03T15:54:03.916Z,5.29
2023-02-03T15:55:45.567Z,5.27
2023-02-03T15:57:18.565Z,5.19
2023-02-03T15:58:50.403Z,5.09
2023-02-03T16:00:27.737Z,5.07
2023-02-03T16:01:59.682Z,5.01
2023-02-03T16:03:37.895Z,4.95
2023-02-03T16:05:19.545Z,4.87
2023-02-03T16:06:51.462Z,4.80
2023-02-03T16:08:34.889Z,4.75
2023-02-03T16:10:06.939Z,4.69
2023-02-03T16:11:38.746Z,4.66
2023-02-03T16:13:14.868Z,4.61
2023-02-03T16:14:46.565Z,4.57
2023-02-03T16:16:22.046Z,4.51
2023-02-03T16:17:59.815Z,4.46
2023-02-03T16:19:34.386Z,4.41
2023-02-03T16:21:06.044Z,4.29
2023-02-03T16:22:57.907Z,4.24
2023-02-03T16:24:35.423Z,4.17
2023-02-03T16:26:07.016Z,4.10
2023-02-03T16:27:38.512Z,4.03
2023-02-03T16:29:28.551Z,3.99
2023-02-03T16:31:19.688Z,3.87
2023-02-03T16:33:19.332Z,3.80
2023-02-03T16:35:09.717Z,3.72
2023-02-03T16:37:00.754Z,3.60
2023-02-03T16:38:51.053Z,3.49
2023-02-03T16:40:41.660Z,3.42
2023-02-03T16:42:34.937Z,3.35
2023-02-03T16:44:25.149Z,3.30
2023-02-03T16:46:16.041Z,3.27
2023-02-03T16:48:06.485Z,3.29
2023-02-03T16:49:56.581Z,3.26
2023-02-03T16:51:29.720Z,3.23
2023-02-03T16:53:01.312Z,3.18
2023-02-03T16:54:32.932Z,3.10
2023-02-03T16:56:04.824Z,3.06
2023-02-03T16:57:36.353Z,3.05
2023-02-03T16:59:08.020Z,3.04
2023-02-03T17:00:41.909Z,3.01
2023-02-03T17:02:13.597Z,3.00
2023-02-03T17:03:45.625Z,2.96
2023-02-03T17:05:17.546Z,2.93
2023-02-03T17:06:51.371Z,2.91
2023-02-03T17:08:23.733Z,2.91
2023-02-03T17:09:55.315Z,2.91
2023-02-03T17:11:27.307Z,2.91
2023-02-03T17:12:58.839Z,2.91
2023-02-03T17:14:30.995Z,2.89
2023-02-03T17:16:07.581Z,2.88
2023-02-03T17:17:39.249Z,2.92
2023-02-03T17:19:11.451Z,2.91
2023-02-03T17:20:43.403Z,2.90
2023-02-03T17:22:14.954Z,2.88
2023-02-03T17:23:46.558Z,2.92
2023-02-03T17:25:18.053Z,2.92
2023-02-03T17:26:50.575Z,2.96
2023-02-03T17:28:22.140Z,2.97
2023-02-03T17:29:53.875Z,2.99
2023-02-03T17:31:25.613Z,2.99
2023-02-03T17:32:59.355Z,2.96
2023-02-03T17:34:31.107Z,2.94
2023-02-03T17:36:05.864Z,2.91
2023-02-03T17:37:37.459Z,2.87
2023-02-03T17:53:40.910Z,2.53
2023-02-03T17:55:12.585Z,2.53
2023-02-03T17:56:47.853Z,2.54
2023-02-03T17:58:19.446Z,2.58
2023-02-03T17:59:55.365Z,2.63
2023-02-03T18:01:27.120Z,2.64
2023-02-03T18:02:58.839Z,2.68
2023-02-03T18:04:30.414Z,2.64
2023-02-03T18:06:04.526Z,2.61
2023-02-03T18:07:36.201Z,2.58
2023-02-03T18:09:09.219Z,2.56
2023-02-03T18:10:40.747Z,2.54
2023-02-03T18:12:12.314Z,2.52
2023-02-03T18:13:44.867Z,2.50
2023-02-03T18:15:16.893Z,2.49
2023-02-03T18:16:48.994Z,2.52
2023-02-03T18:18:21.518Z,2.52
2023-02-03T18:19:56.194Z,2.52
2023-02-03T18:21:28.381Z,2.55
2023-02-03T18:22:59.940Z,2.55
2023-02-03T18:24:31.845Z,2.58
2023-02-03T18:26:03.781Z,2.61
2023-02-03T18:27:35.316Z,2.66
2023-02-03T18:29:07.250Z,2.67
2023-02-03T18:30:38.851Z,2.70
2023-02-03T18:32:10.696Z,2.72
2023-02-03T18:33:42.421Z,2.70
2023-02-03T18:35:17.021Z,2.70
2023-02-03T18:36:48.559Z,2.66
2023-02-03T18:38:20.706Z,2.64
2023-02-03T18:39:52.661Z,2.65
2023-02-03T18:41:24.606Z,2.69
2023-02-03T18:42:59.652Z,2.69
2023-02-03T18:44:31.942Z,2.70
2023-02-03T18:46:10.614Z,2.70
2023-02-03T18:47:42.311Z,2.72
2023-02-03T18:49:14.657Z,2.71
2023-02-03T18:50:46.219Z,2.71
2023-02-03T18:52:17.876Z,2.71
2023-02-03T18:53:49.649Z,2.72
2023-02-03T18:55:21.213Z,2.75
2023-02-03T18:56:52.753Z,2.78
2023-02-03T18:58:24.326Z,2.84
2023-02-03T18:59:56.177Z,2.90
2023-02-03T19:01:28.697Z,2.99
2023-02-03T19:03:00.329Z,3.03
2023-02-03T19:04:31.981Z,3.00
2023-02-03T19:06:08.756Z,3.02
2023-02-03T19:07:40.941Z,3.05
2023-02-03T19:09:15.305Z,3.06
2023-02-03T19:10:55.885Z,3.02
2023-02-03T19:12:27.860Z,2.98
2023-02-03T19:13:59.414Z,2.97
2023-02-03T19:15:31.081Z,2.93
2023-02-03T19:17:03.164Z,2.90
2023-02-03T19:18:36.159Z,2.89
2023-02-03T19:20:08.201Z,2.90
2023-02-03T19:21:40.044Z,2.91
2023-02-03T19:23:12.177Z,3.00
2023-02-03T19:24:43.872Z,3.02
2023-02-03T19:26:15.554Z,3.04
2023-02-03T19:27:47.144Z,3.03
2023-02-03T19:29:18.811Z,3.01
2023-02-03T19:30:55.064Z,2.99
2023-02-03T19:32:29.309Z,2.98
2023-02-03T19:34:00.948Z,2.98
2023-02-03T19:35:33.540Z,3.03
2023-02-03T19:37:05.737Z,3.05
2023-02-03T19:38:37.378Z,3.04
2023-02-03T19:40:09.298Z,3.07
2023-02-03T19:41:41.307Z,3.08
2023-02-03T19:43:13.021Z,3.10
2023-02-03T19:44:44.728Z,3.11
2023-02-03T19:46:16.337Z,3.15
2023-02-03T19:47:47.979Z,3.21
2023-02-03T19:49:20.416Z,3.23
2023-02-03T19:50:52.505Z,3.22
2023-02-03T19:52:24.381Z,3.26
2023-02-03T19:53:56.140Z,3.26
2023-02-03T19:55:30.920Z,3.26
2023-02-03T19:57:02.767Z,3.26
2023-02-03T19:58:34.671Z,3.24
2023-02-03T20:00:06.793Z,3.23
2023-02-03T20:01:38.470Z,3.15
2023-02-03T20:03:10.494Z,3.15
2023-02-03T20:04:42.575Z,3.19
2023-02-03T20:06:14.183Z,3.21
2023-02-03T20:07:45.810Z,3.21
2023-02-03T20:09:17.847Z,3.18
2023-02-03T20:10:49.735Z,3.13
2023-02-03T20:12:21.513Z,3.15
2023-02-03T20:13:53.504Z,3.15
2023-02-03T20:15:25.830Z,3.19
2023-02-03T20:16:57.386Z,3.23
2023-02-03T20:18:29.341Z,3.29
2023-02-03T20:20:01.286Z,3.33
2023-02-03T20:21:32.964Z,3.38
2023-02-03T20:23:04.789Z,3.38
2023-02-03T20:24:36.556Z,3.37
2023-02-03T20:26:08.168Z,3.40
2023-02-03T20:27:39.895Z,3.41
2023-02-03T20:29:11.856Z,3.41
2023-02-03T20:30:43.693Z,3.44
2023-02-03T20:32:15.509Z,3.49
2023-02-03T20:33:47.233Z,3.49
2023-02-03T20:35:20.128Z,3.47
2023-02-03T20:36:51.783Z,3.45
2023-02-03T20:38:23.644Z,3.51
2023-02-03T20:39:55.676Z,3.53
2023-02-03T20:41:27.372Z,3.59
2023-02-03T20:43:03.210Z,3.68
2023-02-03T20:44:35.113Z,3.68
2023-02-03T20:46:10.368Z,3.63
2023-02-03T20:47:42.137Z,3.62
2023-02-03T20:49:14.388Z,3.66
2023-02-03T20:50:49.760Z,3.67
2023-02-03T20:52:21.479Z,3.70
2023-02-03T20:53:56.821Z,3.76
2023-02-03T20:55:28.559Z,3.78
2023-02-03T20:57:00.216Z,3.75
2023-02-03T20:58:33.135Z,3.72
2023-02-03T21:00:17.471Z,3.72
2023-02-03T21:01:50.927Z,3.70
2023-02-03T21:03:41.113Z,3.68
2023-02-03T21:05:25.992Z,3.67
2023-02-03T21:06:57.745Z,3.65
2023-02-03T21:08:29.487Z,3.64
2023-02-03T21:10:01.741Z,3.63
2023-02-03T21:11:33.616Z,3.62
2023-02-03T21:13:16.760Z,3.62
2023-02-03T21:14:53.156Z,3.63
2023-02-03T21:16:27.729Z,3.62
2023-02-03T21:17:59.477Z,3.61
2023-02-03T21:19:34.479Z,3.62
2023-02-03T21:21:11.928Z,3.61
2023-02-03T21:22:44.117Z,3.58
2023-02-03T21:24:35.661Z,3.56
2023-02-03T21:26:18.127Z,3.56
2023-02-03T21:27:50.195Z,3.55
2023-02-03T21:29:33.897Z,3.56
2023-02-03T21:31:05.677Z,3.57
2023-02-03T21:32:38.381Z,3.62
2023-02-03T21:34:23.419Z,3.63
2023-02-03T21:35:55.048Z,3.70